Terminal Aerodrome Forecast
Issued by NWS Rapid City, SD

Home | Current Version | Previous Version | Graphics & Text | Print | Product List | Glossary On
Versions: 1 2 3 4 5 6 7 8 9 10 11 12 13 14 15
495
FTUS43 KUNR 171120
TAFRAP
TAF
KRAP 171120Z 1712/1812 30014KT P6SM SCT250
     FM171500 33020G30KT P6SM SCT200
     FM172200 33012KT P6SM SKC
     FM180300 VRB04KT P6SM SCT250=

USA.gov is the U.S. government's official web portal to all federal, state and local government web resources and services.